sensor_id;sensor_type;location;lat;lon;timestamp;pressure;altitude;pressure_sealevel;temperature;humidity
5679;BME280;2862;52.560;13.566;2023-03-23T00:02:24;99723.84;;;12.58;72.63
5679;BME280;2862;52.560;13.566;2023-03-23T00:12:28;99721.81;;;12.44;73.21
5679;BME280;2862;52.560;13.566;2023-03-23T00:22:35;99704.69;;;12.37;73.52
5679;BME280;2862;52.560;13.566;2023-03-23T00:32:38;99706.84;;;12.25;74.47
5679;BME280;2862;52.560;13.566;2023-03-23T00:42:44;99698.81;;;12.25;74.36
5679;BME280;2862;52.560;13.566;2023-03-23T00:52:46;99682.53;;;12.10;75.01
5679;BME280;2862;52.560;13.566;2023-03-23T01:02:52;99662.38;;;11.98;75.69
5679;BME280;2862;52.560;13.566;2023-03-23T01:12:54;99657.19;;;11.88;75.84
5679;BME280;2862;52.560;13.566;2023-03-23T01:22:58;99642.63;;;11.91;75.58
5679;BME280;2862;52.560;13.566;2023-03-23T01:33:01;99646.03;;;11.67;76.82
5679;BME280;2862;52.560;13.566;2023-03-23T01:43:10;99621.84;;;11.51;77.99
5679;BME280;2862;52.560;13.566;2023-03-23T01:53:18;99635.13;;;11.60;77.13
5679;BME280;2862;52.560;13.566;2023-03-23T02:03:22;99623.72;;;11.58;77.06
5679;BME280;2862;52.560;13.566;2023-03-23T02:13:26;99608.00;;;11.63;76.96
5679;BME280;2862;52.560;13.566;2023-03-23T02:23:50;99607.53;;;11.68;76.57
5679;BME280;2862;52.560;13.566;2023-03-23T02:34:02;99600.13;;;11.54;77.43
5679;BME280;2862;52.560;13.566;2023-03-23T02:44:08;99591.47;;;11.68;76.44
5679;BME280;2862;52.560;13.566;2023-03-23T02:54:13;99599.69;;;11.75;76.14
5679;BME280;2862;52.560;13.566;2023-03-23T03:04:19;99595.06;;;11.85;78.16
5679;BME280;2862;52.560;13.566;2023-03-23T03:14:27;99584.59;;;11.65;79.60
5679;BME280;2862;52.560;13.566;2023-03-23T03:24:31;99572.97;;;11.91;78.07
5679;BME280;2862;52.560;13.566;2023-03-23T03:34:35;99583.38;;;11.94;78.33
5679;BME280;2862;52.560;13.566;2023-03-23T03:44:39;99585.69;;;11.97;79.94
5679;BME280;2862;52.560;13.566;2023-03-23T03:54:43;99576.00;;;11.88;82.51
5679;BME280;2862;52.560;13.566;2023-03-23T04:04:46;99582.31;;;11.87;83.34
5679;BME280;2862;52.560;13.566;2023-03-23T04:14:50;99585.22;;;11.93;82.54
5679;BME280;2862;52.560;13.566;2023-03-23T04:24:53;99559.09;;;11.95;81.77
5679;BME280;2862;52.560;13.566;2023-03-23T04:34:58;99557.41;;;12.03;81.53
5679;BME280;2862;52.560;13.566;2023-03-23T04:45:08;99554.25;;;12.07;81.83
5679;BME280;2862;52.560;13.566;2023-03-23T04:55:14;99582.56;;;12.18;82.18
5679;BME280;2862;52.560;13.566;2023-03-23T05:05:23;99597.63;;;12.11;83.50
5679;BME280;2862;52.560;13.566;2023-03-23T05:15:29;99601.28;;;12.02;85.59
5679;BME280;2862;52.560;13.566;2023-03-23T05:25:33;99587.22;;;12.00;87.95
5679;BME280;2862;52.560;13.566;2023-03-23T05:35:46;99581.50;;;11.86;91.02
5679;BME280;2862;52.560;13.566;2023-03-23T05:45:53;99591.47;;;11.68;92.90
5679;BME280;2862;52.560;13.566;2023-03-23T05:55:59;99611.75;;;11.36;95.41
5679;BME280;2862;52.560;13.566;2023-03-23T06:06:33;99606.31;;;11.20;98.43
5679;BME280;2862;52.560;13.566;2023-03-23T06:16:46;99616.28;;;11.10;100.00
5679;BME280;2862;52.560;13.566;2023-03-23T06:26:49;99626.38;;;10.90;100.00
5679;BME280;2862;52.560;13.566;2023-03-23T06:36:57;99623.72;;;10.90;100.00
5679;BME280;2862;52.560;13.566;2023-03-23T06:47:24;99630.03;;;10.89;100.00
5679;BME280;2862;52.560;13.566;2023-03-23T06:57:28;99638.97;;;10.98;100.00
5679;BME280;2862;52.560;13.566;2023-03-23T07:07:30;99638.44;;;11.20;100.00
5679;BME280;2862;52.560;13.566;2023-03-23T07:17:47;99635.97;;;11.27;100.00
5679;BME280;2862;52.560;13.566;2023-03-23T07:28:08;99626.06;;;11.19;100.00
5679;BME280;2862;52.560;13.566;2023-03-23T07:38:11;99631.63;;;11.68;100.00
5679;BME280;2862;52.560;13.566;2023-03-23T07:48:16;99643.75;;;11.46;100.00
5679;BME280;2862;52.560;13.566;2023-03-23T07:58:21;99607.75;;;11.40;100.00
5679;BME280;2862;52.560;13.566;2023-03-23T08:08:28;99566.16;;;11.62;100.00
5679;BME280;2862;52.560;13.566;2023-03-23T08:18:58;99608.53;;;11.67;100.00
5679;BME280;2862;52.560;13.566;2023-03-23T08:29:12;99637.69;;;11.78;100.00
5679;BME280;2862;52.560;13.566;2023-03-23T08:39:34;99637.34;;;11.73;100.00
5679;BME280;2862;52.560;13.566;2023-03-23T08:49:57;99611.03;;;11.68;100.00
5679;BME280;2862;52.560;13.566;2023-03-23T09:00:26;99627.94;;;12.11;100.00
5679;BME280;2862;52.560;13.566;2023-03-23T09:10:50;99629.13;;;12.17;100.00
5679;BME280;2862;52.560;13.566;2023-03-23T09:20:54;99645.75;;;12.69;100.00
5679;BME280;2862;52.560;13.566;2023-03-23T09:30:56;99634.84;;;12.55;99.03
5679;BME280;2862;52.560;13.566;2023-03-23T09:41:07;99619.84;;;13.17;96.31
5679;BME280;2862;52.560;13.566;2023-03-23T09:51:24;99640.22;;;13.98;92.65
5679;BME280;2862;52.560;13.566;2023-03-23T10:01:34;99646.88;;;14.11;90.11
5679;BME280;2862;52.560;13.566;2023-03-23T10:11:44;99643.47;;;14.48;86.37
5679;BME280;2862;52.560;13.566;2023-03-23T10:21:50;99640.72;;;14.02;86.19
5679;BME280;2862;52.560;13.566;2023-03-23T10:31:58;99631.84;;;14.24;84.24
5679;BME280;2862;52.560;13.566;2023-03-23T10:42:03;99618.72;;;14.75;81.58
5679;BME280;2862;52.560;13.566;2023-03-23T10:52:17;99612.59;;;14.96;79.54
5679;BME280;2862;52.560;13.566;2023-03-23T11:02:24;99628.94;;;14.95;79.40
5679;BME280;2862;52.560;13.566;2023-03-23T11:12:26;99619.25;;;14.71;79.38
5679;BME280;2862;52.560;13.566;2023-03-23T11:22:36;99646.44;;;14.76;77.98
5679;BME280;2862;52.560;13.566;2023-03-23T11:32:42;99639.63;;;14.88;76.88
5679;BME280;2862;52.560;13.566;2023-03-23T11:42:48;99647.94;;;15.16;75.09
5679;BME280;2862;52.560;13.566;2023-03-23T11:52:54;99642.38;;;15.47;72.30
5679;BME280;2862;52.560;13.566;2023-03-23T12:03:33;99656.72;;;15.77;69.58
5679;BME280;2862;52.560;13.566;2023-03-23T12:13:48;99660.41;;;15.91;70.13
5679;BME280;2862;52.560;13.566;2023-03-23T12:24:02;99661.50;;;15.97;68.56
5679;BME280;2862;52.560;13.566;2023-03-23T12:34:11;99651.22;;;15.71;68.39
5679;BME280;2862;52.560;13.566;2023-03-23T12:44:21;99644.72;;;15.65;68.28
5679;BME280;2862;52.560;13.566;2023-03-23T12:54:30;99629.19;;;15.52;68.53
5679;BME280;2862;52.560;13.566;2023-03-23T13:04:40;99611.06;;;15.76;67.62
5679;BME280;2862;52.560;13.566;2023-03-23T13:14:53;99634.44;;;16.05;65.45
5679;BME280;2862;52.560;13.566;2023-03-23T13:25:00;99626.50;;;16.39;64.41
5679;BME280;2862;52.560;13.566;2023-03-23T13:35:11;99608.81;;;16.15;63.01
5679;BME280;2862;52.560;13.566;2023-03-23T13:45:21;99589.81;;;16.45;62.16
5679;BME280;2862;52.560;13.566;2023-03-23T13:55:40;99567.22;;;16.46;61.34
5679;BME280;2862;52.560;13.566;2023-03-23T14:05:45;99571.72;;;16.39;59.20
5679;BME280;2862;52.560;13.566;2023-03-23T14:15:57;99604.34;;;16.23;57.51
5679;BME280;2862;52.560;13.566;2023-03-23T14:26:02;99589.72;;;16.75;55.20
5679;BME280;2862;52.560;13.566;2023-03-23T14:36:08;99593.13;;;16.68;54.02
5679;BME280;2862;52.560;13.566;2023-03-23T14:46:12;99596.31;;;16.51;54.98
5679;BME280;2862;52.560;13.566;2023-03-23T14:56:17;99591.75;;;16.08;57.85
5679;BME280;2862;52.560;13.566;2023-03-23T15:06:21;99601.22;;;15.68;59.08
5679;BME280;2862;52.560;13.566;2023-03-23T15:16:27;99615.06;;;15.80;60.65
5679;BME280;2862;52.560;13.566;2023-03-23T15:26:33;99615.31;;;16.21;61.84
5679;BME280;2862;52.560;13.566;2023-03-23T15:36:36;99587.59;;;16.06;62.68
5679;BME280;2862;52.560;13.566;2023-03-23T15:46:49;99579.13;;;15.94;61.17
5679;BME280;2862;52.560;13.566;2023-03-23T15:56:51;99608.06;;;15.85;60.78
5679;BME280;2862;52.560;13.566;2023-03-23T16:06:55;99626.31;;;15.69;61.03
5679;BME280;2862;52.560;13.566;2023-03-23T16:16:59;99636.00;;;15.63;59.23
5679;BME280;2862;52.560;13.566;2023-03-23T16:27:03;99653.00;;;15.63;59.11
5679;BME280;2862;52.560;13.566;2023-03-23T16:37:08;99655.28;;;15.52;58.25
5679;BME280;2862;52.560;13.566;2023-03-23T16:47:13;99650.38;;;15.55;57.10
5679;BME280;2862;52.560;13.566;2023-03-23T16:57:17;99696.81;;;15.57;58.39
5679;BME280;2862;52.560;13.566;2023-03-23T17:07:22;99732.59;;;15.13;68.27
5679;BME280;2862;52.560;13.566;2023-03-23T17:17:29;99732.59;;;14.91;70.58
5679;BME280;2862;52.560;13.566;2023-03-23T17:27:34;99734.03;;;14.55;73.15
5679;BME280;2862;52.560;13.566;2023-03-23T17:37:37;99741.63;;;14.44;74.79
5679;BME280;2862;52.560;13.566;2023-03-23T17:47:42;99763.38;;;14.34;76.70
5679;BME280;2862;52.560;13.566;2023-03-23T17:57:46;99771.72;;;14.08;79.82
5679;BME280;2862;52.560;13.566;2023-03-23T18:07:50;99756.06;;;13.56;81.73
5679;BME280;2862;52.560;13.566;2023-03-23T18:17:53;99741.31;;;13.36;83.34
5679;BME280;2862;52.560;13.566;2023-03-23T18:27:57;99761.47;;;13.40;82.50
5679;BME280;2862;52.560;13.566;2023-03-23T18:38:00;99799.72;;;13.42;81.82
5679;BME280;2862;52.560;13.566;2023-03-23T18:48:05;99821.19;;;13.42;82.25
5679;BME280;2862;52.560;13.566;2023-03-23T18:58:10;99812.44;;;13.07;87.61
5679;BME280;2862;52.560;13.566;2023-03-23T19:08:15;99811.06;;;12.95;90.93
5679;BME280;2862;52.560;13.566;2023-03-23T19:18:19;99809.06;;;12.81;93.02
5679;BME280;2862;52.560;13.566;2023-03-23T19:28:25;99813.72;;;12.62;95.56
5679;BME280;2862;52.560;13.566;2023-03-23T19:38:33;99808.84;;;12.58;97.05
5679;BME280;2862;52.560;13.566;2023-03-23T19:48:37;99810.66;;;12.57;97.44
5679;BME280;2862;52.560;13.566;2023-03-23T19:58:40;99808.34;;;12.62;96.92
5679;BME280;2862;52.560;13.566;2023-03-23T20:08:45;99814.19;;;12.66;96.70
5679;BME280;2862;52.560;13.566;2023-03-23T20:18:49;99814.38;;;12.64;96.72
5679;BME280;2862;52.560;13.566;2023-03-23T20:28:54;99817.59;;;12.68;96.45
5679;BME280;2862;52.560;13.566;2023-03-23T20:38:57;99811.03;;;12.62;97.19
5679;BME280;2862;52.560;13.566;2023-03-23T20:49:03;99805.34;;;12.73;97.85
5679;BME280;2862;52.560;13.566;2023-03-23T20:59:06;99810.25;;;12.86;96.48
5679;BME280;2862;52.560;13.566;2023-03-23T21:09:11;99816.28;;;12.88;95.58
5679;BME280;2862;52.560;13.566;2023-03-23T21:19:14;99818.94;;;12.80;99.31
5679;BME280;2862;52.560;13.566;2023-03-23T21:29:18;99803.75;;;12.46;100.00
5679;BME280;2862;52.560;13.566;2023-03-23T21:39:23;99783.81;;;12.49;100.00
5679;BME280;2862;52.560;13.566;2023-03-23T21:49:28;99761.66;;;12.31;100.00
5679;BME280;2862;52.560;13.566;2023-03-23T21:59:32;99777.06;;;12.29;100.00
5679;BME280;2862;52.560;13.566;2023-03-23T22:09:37;99763.97;;;12.17;100.00
5679;BME280;2862;52.560;13.566;2023-03-23T22:19:41;99753.81;;;11.95;100.00
5679;BME280;2862;52.560;13.566;2023-03-23T22:29:45;99754.03;;;11.76;100.00
5679;BME280;2862;52.560;13.566;2023-03-23T22:39:48;99739.25;;;11.72;100.00
5679;BME280;2862;52.560;13.566;2023-03-23T22:49:53;99736.75;;;11.70;100.00
5679;BME280;2862;52.560;13.566;2023-03-23T22:59:57;99722.28;;;11.55;100.00
5679;BME280;2862;52.560;13.566;2023-03-23T23:10:02;99707.34;;;11.52;100.00
5679;BME280;2862;52.560;13.566;2023-03-23T23:20:07;99704.91;;;11.33;100.00
5679;BME280;2862;52.560;13.566;2023-03-23T23:30:15;99693.19;;;11.34;100.00
5679;BME280;2862;52.560;13.566;2023-03-23T23:40:18;99696.13;;;11.23;100.00
5679;BME280;2862;52.560;13.566;2023-03-23T23:50:24;99681.03;;;11.13;100.00
